createdAt,value
2023-01-18T00:01:21.905Z,75.00
2023-01-18T00:03:49.919Z,61.80
2023-01-18T00:06:18.170Z,68.90
2023-01-18T00:08:46.102Z,79.60
2023-01-18T00:11:17.203Z,83.60
2023-01-18T00:13:45.757Z,83.40
2023-01-18T00:16:20.091Z,84.60
2023-01-18T00:18:56.964Z,76.10
2023-01-18T00:21:27.737Z,71.80
2023-01-18T00:23:56.860Z,74.00
2023-01-18T00:26:24.872Z,76.30
2023-01-18T00:28:56.359Z,69.00
2023-01-18T00:31:24.261Z,72.80
2023-01-18T00:33:52.283Z,74.00
2023-01-18T00:36:20.325Z,74.20
2023-01-18T00:38:51.788Z,84.70
2023-01-18T00:41:21.684Z,72.80
2023-01-18T00:43:50.353Z,68.70
2023-01-18T00:46:24.285Z,66.70
2023-01-18T00:48:52.577Z,67.40
2023-01-18T00:51:23.687Z,69.40
2023-01-18T00:53:52.080Z,67.00
2023-01-18T00:56:22.635Z,73.20
2023-01-18T00:58:51.014Z,59.30
2023-01-18T01:01:19.088Z,62.70
2023-01-18T01:04:06.014Z,58.40
2023-01-18T01:06:44.672Z,70.00
2023-01-18T01:09:18.267Z,68.80
2023-01-18T01:12:06.449Z,60.40
2023-01-18T01:14:55.628Z,61.60
2023-01-18T01:17:42.108Z,61.60
2023-01-18T01:20:29.673Z,51.70
2023-01-18T01:23:16.270Z,54.60
2023-01-18T01:26:02.830Z,55.00
2023-01-18T01:28:30.732Z,61.20
2023-01-18T01:31:00.898Z,66.90
2023-01-18T01:33:30.613Z,62.70
2023-01-18T01:36:01.537Z,62.50
2023-01-18T01:38:30.669Z,62.40
2023-01-18T01:41:01.854Z,68.20
2023-01-18T01:43:51.322Z,58.60
2023-01-18T01:46:47.154Z,58.30
2023-01-18T01:49:19.889Z,53.20
2023-01-18T01:51:52.893Z,54.60
2023-01-18T01:54:28.940Z,55.30
2023-01-18T01:57:20.077Z,47.60
2023-01-18T01:59:59.535Z,44.80
2023-01-18T02:02:29.540Z,46.40
2023-01-18T02:04:59.639Z,45.90
2023-01-18T02:07:28.954Z,51.10
2023-01-18T02:09:59.124Z,53.40
2023-01-18T02:12:29.332Z,51.90
2023-01-18T02:14:59.546Z,53.70
2023-01-18T02:18:05.827Z,52.40
2023-01-18T02:20:52.695Z,51.90
2023-01-18T02:23:30.702Z,48.80
2023-01-18T02:26:33.867Z,47.00
2023-01-18T02:29:13.986Z,43.90
2023-01-18T02:32:08.843Z,40.10
2023-01-18T02:34:52.173Z,46.60
2023-01-18T02:37:26.016Z,47.20
2023-01-18T02:40:14.145Z,48.90
2023-01-18T02:43:03.672Z,46.60
2023-01-18T02:45:57.996Z,46.20
2023-01-18T02:48:33.321Z,52.70
2023-01-18T02:51:01.151Z,64.90
2023-01-18T02:53:30.272Z,58.10
2023-01-18T02:56:11.423Z,51.30
2023-01-18T02:58:48.880Z,48.80
2023-01-18T03:01:34.173Z,47.10
2023-01-18T03:04:14.030Z,63.50
2023-01-18T03:06:48.490Z,66.30
2023-01-18T03:09:18.634Z,49.50
2023-01-18T03:11:57.826Z,48.60
2023-01-18T03:15:13.083Z,47.70
2023-01-18T03:17:59.513Z,50.80
2023-01-18T03:20:33.055Z,49.70
2023-01-18T03:23:32.363Z,46.80
2023-01-18T03:26:03.386Z,46.20
2023-01-18T03:28:55.348Z,44.70
2023-01-18T03:32:01.260Z,44.40
2023-01-18T03:34:38.657Z,38.80
2023-01-18T03:37:19.441Z,37.40
2023-01-18T03:39:53.702Z,36.60
2023-01-18T03:42:29.421Z,38.30
2023-01-18T03:45:08.769Z,40.10
2023-01-18T03:47:37.536Z,42.20
2023-01-18T03:50:05.859Z,43.30
2023-01-18T03:52:45.209Z,37.10
2023-01-18T03:55:28.991Z,37.60
2023-01-18T03:58:06.518Z,39.90
2023-01-18T04:00:34.359Z,38.90
2023-01-18T04:03:02.669Z,40.30
2023-01-18T04:05:30.841Z,36.50
2023-01-18T04:07:58.689Z,38.10
2023-01-18T04:10:26.849Z,37.80
2023-01-18T04:12:54.821Z,47.80
2023-01-18T04:15:22.895Z,40.10
2023-01-18T04:17:53.474Z,41.60
2023-01-18T04:20:22.287Z,37.40
2023-01-18T04:22:54.662Z,41.00
2023-01-18T04:25:22.615Z,37.90
2023-01-18T04:27:50.628Z,39.50
2023-01-18T04:30:18.772Z,41.50
2023-01-18T04:32:46.722Z,43.20
2023-01-18T04:35:15.083Z,36.70
2023-01-18T04:37:42.927Z,36.80
2023-01-18T04:40:11.533Z,38.70
2023-01-18T04:42:39.580Z,40.20
2023-01-18T04:45:08.123Z,40.60
2023-01-18T04:47:35.953Z,35.40
2023-01-18T04:50:04.107Z,37.60
2023-01-18T04:52:33.424Z,34.40
2023-01-18T04:55:01.418Z,36.70
2023-01-18T04:57:29.351Z,36.00
2023-01-18T04:59:57.283Z,40.30
2023-01-18T05:02:25.195Z,43.10
2023-01-18T05:04:53.288Z,41.90
2023-01-18T05:07:25.322Z,38.70
2023-01-18T05:09:53.283Z,37.10
2023-01-18T05:12:21.209Z,36.20
2023-01-18T05:14:49.230Z,39.40
2023-01-18T05:17:17.039Z,43.70
2023-01-18T05:19:46.829Z,46.80
2023-01-18T05:22:14.634Z,44.40
2023-01-18T05:24:42.548Z,54.70
2023-01-18T05:27:11.949Z,47.30
2023-01-18T05:29:39.833Z,39.80
2023-01-18T05:32:07.824Z,33.60
2023-01-18T05:34:35.803Z,33.10
2023-01-18T05:37:04.776Z,30.60
2023-01-18T05:39:32.762Z,32.60
2023-01-18T05:42:00.553Z,32.70
2023-01-18T05:44:28.970Z,31.60
2023-01-18T05:46:57.961Z,29.80
2023-01-18T05:49:25.932Z,33.30
2023-01-18T05:51:53.891Z,30.70
2023-01-18T05:54:21.928Z,42.10
2023-01-18T05:56:49.767Z,126.90
2023-01-18T05:59:17.733Z,119.80
2023-01-18T06:01:45.605Z,104.30
2023-01-18T06:04:13.699Z,134.00
2023-01-18T06:06:41.791Z,66.80
2023-01-18T06:09:09.665Z,50.40
2023-01-18T06:11:37.498Z,83.50
2023-01-18T06:14:05.541Z,83.30
2023-01-18T06:16:33.390Z,99.00
2023-01-18T06:19:01.452Z,118.20
2023-01-18T06:21:29.307Z,86.90
2023-01-18T06:23:57.254Z,59.10
2023-01-18T06:26:25.216Z,66.30
2023-01-18T06:28:53.634Z,56.90
2023-01-18T06:31:21.495Z,53.10
2023-01-18T06:33:49.677Z,50.80
2023-01-18T06:36:17.481Z,113.30
2023-01-18T06:38:45.394Z,127.20
2023-01-18T06:41:13.408Z,69.50
2023-01-18T06:43:41.714Z,76.90
2023-01-18T06:46:11.625Z,30.80
2023-01-18T06:48:39.581Z,25.30
2023-01-18T06:51:07.641Z,28.10
2023-01-18T06:53:37.695Z,28.50
2023-01-18T06:56:10.456Z,27.70
2023-01-18T06:58:38.470Z,25.20
2023-01-18T07:01:06.970Z,24.30
2023-01-18T07:03:35.200Z,16.20
2023-01-18T07:06:04.462Z,18.90
2023-01-18T07:08:32.686Z,19.00
2023-01-18T07:11:08.240Z,17.00
2023-01-18T07:13:40.004Z,20.10
2023-01-18T07:16:09.364Z,15.60
2023-01-18T07:18:37.259Z,16.60
2023-01-18T07:21:10.204Z,15.70
2023-01-18T07:23:39.996Z,17.50
2023-01-18T07:26:17.140Z,18.70
2023-01-18T07:28:46.418Z,18.00
2023-01-18T07:31:15.597Z,15.60
2023-01-18T07:33:43.799Z,16.60
2023-01-18T07:36:11.958Z,17.10
2023-01-18T07:38:40.352Z,19.70
2023-01-18T07:41:14.511Z,17.60
2023-01-18T07:43:44.920Z,19.40
2023-01-18T07:46:16.981Z,17.00
2023-01-18T07:48:45.028Z,16.60
2023-01-18T07:51:13.374Z,16.50
2023-01-18T07:53:41.905Z,17.80
2023-01-18T07:56:13.821Z,18.10
2023-01-18T07:58:42.442Z,15.90
2023-01-18T08:01:16.166Z,19.10
2023-01-18T08:03:45.690Z,17.90
2023-01-18T08:06:13.925Z,17.20
2023-01-18T08:08:42.168Z,18.60
2023-01-18T08:11:11.302Z,18.50
2023-01-18T08:13:39.474Z,16.30
2023-01-18T08:16:09.541Z,17.90
2023-01-18T08:18:37.665Z,16.70
2023-01-18T08:21:11.050Z,17.40
2023-01-18T08:23:39.309Z,16.30
2023-01-18T08:26:09.099Z,17.60
2023-01-18T08:28:37.562Z,18.20
2023-01-18T08:31:07.503Z,17.50
2023-01-18T08:33:37.936Z,17.90
2023-01-18T08:36:10.548Z,18.30
2023-01-18T08:38:39.591Z,16.20
2023-01-18T08:41:07.679Z,18.30
2023-01-18T08:43:35.908Z,19.40
2023-01-18T08:46:04.156Z,17.20
2023-01-18T08:48:32.263Z,19.80
2023-01-18T08:51:02.241Z,21.00
2023-01-18T08:53:31.473Z,18.70
2023-01-18T08:55:59.273Z,15.70
2023-01-18T08:58:27.338Z,16.10
2023-01-18T09:00:55.145Z,16.90
2023-01-18T09:03:23.192Z,17.40
2023-01-18T09:05:51.593Z,16.60
2023-01-18T09:08:19.514Z,16.20
2023-01-18T09:10:47.502Z,17.60
2023-01-18T09:13:15.476Z,16.50
2023-01-18T09:15:43.687Z,20.00
2023-01-18T09:18:11.644Z,16.60
2023-01-18T09:20:39.763Z,20.00
2023-01-18T09:23:09.523Z,19.00
2023-01-18T09:25:37.815Z,19.10
2023-01-18T09:28:05.846Z,19.00
2023-01-18T09:30:34.084Z,17.80
2023-01-18T09:33:03.740Z,17.70
2023-01-18T09:35:33.101Z,17.50
2023-01-18T09:38:01.067Z,17.70
2023-01-18T09:40:45.005Z,18.50
2023-01-18T09:43:24.579Z,22.90
2023-01-18T09:45:53.587Z,24.50
2023-01-18T09:48:40.897Z,21.60
2023-01-18T09:51:20.515Z,20.00
2023-01-18T09:54:15.790Z,22.60
2023-01-18T09:57:04.222Z,21.90
2023-01-18T09:59:42.171Z,19.50
2023-01-18T10:02:24.375Z,21.80
2023-01-18T10:04:56.532Z,23.80
2023-01-18T10:07:27.337Z,23.40
2023-01-18T10:09:58.638Z,21.30
2023-01-18T10:12:32.533Z,24.80
2023-01-18T10:15:10.747Z,24.00
2023-01-18T10:17:41.952Z,23.00
2023-01-18T10:20:35.744Z,25.10
2023-01-18T10:23:13.677Z,23.70
2023-01-18T10:25:55.843Z,25.00
2023-01-18T10:29:00.946Z,25.30
2023-01-18T10:34:34.673Z,23.90
2023-01-18T10:37:38.965Z,27.60
2023-01-18T10:40:10.280Z,22.80
2023-01-18T10:42:48.481Z,26.90
2023-01-18T10:45:22.881Z,28.30
2023-01-18T10:47:53.152Z,26.00
2023-01-18T10:50:34.373Z,27.70
2023-01-18T10:53:28.224Z,27.80
2023-01-18T10:56:06.854Z,23.40
2023-01-18T10:59:00.884Z,25.80
2023-01-18T11:01:30.454Z,27.30
2023-01-18T11:04:06.302Z,26.70
2023-01-18T11:06:53.692Z,27.10
2023-01-18T11:09:48.802Z,25.20
2023-01-18T11:12:42.309Z,25.70
2023-01-18T11:15:13.342Z,25.30
2023-01-18T11:17:50.413Z,27.00
2023-01-18T11:20:44.605Z,25.70
2023-01-18T11:23:37.655Z,25.20
2023-01-18T11:26:19.208Z,25.30
2023-01-18T11:29:12.552Z,25.60
2023-01-18T11:31:47.491Z,24.80
2023-01-18T11:34:34.309Z,20.30
2023-01-18T11:37:02.786Z,30.20
2023-01-18T11:39:33.000Z,28.80
2023-01-18T11:42:11.550Z,28.60
2023-01-18T11:44:54.566Z,27.40
2023-01-18T11:47:32.403Z,25.50
2023-01-18T11:50:23.971Z,23.40
2023-01-18T11:52:56.823Z,25.90
2023-01-18T11:55:56.075Z,28.10
2023-01-18T11:58:29.397Z,23.10
2023-01-18T12:00:57.352Z,26.00
2023-01-18T12:03:35.408Z,23.50
2023-01-18T12:06:11.063Z,51.70
2023-01-18T12:08:55.042Z,28.70
2023-01-18T12:12:09.837Z,27.60
2023-01-18T12:14:51.610Z,30.20
2023-01-18T12:17:38.293Z,30.50
2023-01-18T12:20:29.367Z,36.20
2023-01-18T12:23:19.038Z,37.40
2023-01-18T12:26:10.933Z,41.60
2023-01-18T12:28:51.795Z,33.80
2023-01-18T12:31:43.871Z,29.80
2023-01-18T12:34:22.395Z,23.80
2023-01-18T12:37:31.453Z,27.10
2023-01-18T12:40:28.699Z,24.80
2023-01-18T12:43:43.279Z,29.10
2023-01-18T12:46:26.534Z,31.80
2023-01-18T12:49:18.947Z,35.40
2023-01-18T12:52:03.131Z,37.10
2023-01-18T12:54:48.948Z,29.70
2023-01-18T12:57:18.470Z,27.20
2023-01-18T13:00:19.020Z,28.20
2023-01-18T13:02:51.893Z,26.50
2023-01-18T13:05:52.638Z,21.60
2023-01-18T13:08:53.476Z,22.00
2023-01-18T13:11:31.011Z,21.70
2023-01-18T13:14:21.673Z,22.90
2023-01-18T13:17:17.117Z,23.50
2023-01-18T13:19:54.727Z,26.20
2023-01-18T13:23:00.001Z,27.70
2023-01-18T13:25:52.860Z,25.50
2023-01-18T13:28:24.017Z,23.60
2023-01-18T13:31:00.713Z,27.20
2023-01-18T13:33:32.830Z,26.70
2023-01-18T13:36:14.399Z,26.10
2023-01-18T13:38:56.252Z,27.30
2023-01-18T13:41:29.871Z,26.50
2023-01-18T13:43:57.787Z,28.20
2023-01-18T13:46:26.623Z,25.80
2023-01-18T13:49:36.177Z,26.10
2023-01-18T13:52:35.787Z,26.10
2023-01-18T13:55:03.867Z,27.60
2023-01-18T13:57:34.403Z,31.30
2023-01-18T14:00:04.234Z,32.10
2023-01-18T14:02:42.514Z,26.50
2023-01-18T14:05:25.650Z,35.90
2023-01-18T14:08:01.057Z,112.30
2023-01-18T14:10:33.344Z,32.00
2023-01-18T14:13:05.069Z,33.10
2023-01-18T14:15:42.070Z,34.10
2023-01-18T14:18:24.946Z,28.20
2023-01-18T14:21:21.183Z,28.00
2023-01-18T14:23:58.046Z,48.10
2023-01-18T14:26:31.021Z,44.90
2023-01-18T14:29:14.282Z,66.70
2023-01-18T14:31:53.569Z,61.50
2023-01-18T14:34:30.786Z,70.30
2023-01-18T14:36:59.268Z,51.30
2023-01-18T14:39:30.121Z,59.60
2023-01-18T14:42:02.146Z,53.90
2023-01-18T14:44:58.642Z,48.30
2023-01-18T14:47:32.193Z,44.70
2023-01-18T14:50:04.315Z,51.00
2023-01-18T14:52:34.587Z,125.60
2023-01-18T14:55:02.735Z,87.50
2023-01-18T14:57:30.747Z,181.30
2023-01-18T15:00:16.572Z,71.40
2023-01-18T15:02:44.592Z,68.20
2023-01-18T15:05:14.587Z,88.10
2023-01-18T15:07:56.019Z,74.40
2023-01-18T15:10:24.979Z,73.50
2023-01-18T15:12:57.983Z,67.60
2023-01-18T15:15:31.094Z,54.80
2023-01-18T15:18:18.918Z,62.50
2023-01-18T15:21:03.380Z,53.30
2023-01-18T15:23:36.441Z,48.10
2023-01-18T15:26:04.707Z,66.10
2023-01-18T15:28:36.744Z,74.70
2023-01-18T15:31:22.845Z,150.60
2023-01-18T15:33:50.930Z,111.00
2023-01-18T15:36:19.677Z,93.60
2023-01-18T15:38:47.707Z,58.90
2023-01-18T15:41:15.775Z,217.80
2023-01-18T15:43:46.204Z,146.90
2023-01-18T15:46:17.123Z,61.10
2023-01-18T15:48:49.884Z,50.70
2023-01-18T15:51:22.590Z,68.30
2023-01-18T15:53:56.606Z,64.80
2023-01-18T15:56:32.762Z,57.40
2023-01-18T15:59:06.594Z,56.00
2023-01-18T16:01:34.581Z,54.80
2023-01-18T16:04:19.085Z,72.40
2023-01-18T16:06:47.083Z,65.50
2023-01-18T16:09:16.146Z,58.40
2023-01-18T16:11:52.793Z,54.80
2023-01-18T16:14:31.401Z,89.90
2023-01-18T16:17:10.227Z,72.50
2023-01-18T16:19:48.469Z,132.70
2023-01-18T16:22:23.964Z,72.50
2023-01-18T16:24:56.246Z,60.30
2023-01-18T16:27:26.411Z,68.40
2023-01-18T16:30:00.049Z,73.40
2023-01-18T16:32:34.533Z,108.50
2023-01-18T16:35:13.137Z,89.30
2023-01-18T16:37:44.473Z,133.90
2023-01-18T16:40:21.304Z,105.30
2023-01-18T16:42:57.202Z,111.60
2023-01-18T16:45:26.104Z,110.70
2023-01-18T16:47:53.911Z,93.90
2023-01-18T16:50:22.206Z,70.50
2023-01-18T16:52:50.304Z,59.10
2023-01-18T16:55:18.648Z,59.80
2023-01-18T16:57:46.785Z,58.10
2023-01-18T17:00:20.875Z,55.80
2023-01-18T17:02:49.772Z,54.70
2023-01-18T17:05:18.688Z,134.50
2023-01-18T17:07:46.850Z,255.60
2023-01-18T17:10:20.187Z,141.80
2023-01-18T17:12:48.049Z,92.20
2023-01-18T17:15:16.652Z,131.00
2023-01-18T17:17:45.831Z,192.40
2023-01-18T17:20:19.904Z,121.60
2023-01-18T17:22:47.892Z,117.90
2023-01-18T17:25:15.750Z,109.60
2023-01-18T17:27:44.576Z,80.30
2023-01-18T17:30:16.160Z,84.40
2023-01-18T17:32:45.909Z,134.10
2023-01-18T17:35:16.627Z,128.20
2023-01-18T17:37:44.497Z,99.40
2023-01-18T17:40:22.798Z,198.90
2023-01-18T17:42:53.299Z,90.20
2023-01-18T17:45:21.204Z,90.60
2023-01-18T17:47:52.267Z,132.60
2023-01-18T17:50:24.941Z,123.70
2023-01-18T17:52:54.628Z,191.10
2023-01-18T17:55:27.464Z,191.40
2023-01-18T17:57:58.854Z,231.50
2023-01-18T18:00:26.939Z,247.30
2023-01-18T18:02:57.363Z,144.60
2023-01-18T18:05:25.657Z,85.20
2023-01-18T18:07:53.624Z,129.40
2023-01-18T18:10:21.745Z,106.00
2023-01-18T18:12:49.551Z,80.10
2023-01-18T18:15:17.676Z,64.50
2023-01-18T18:17:45.547Z,63.20
2023-01-18T18:20:14.190Z,78.90
2023-01-18T18:22:41.968Z,129.50
2023-01-18T18:25:10.051Z,97.60
2023-01-18T18:27:45.320Z,83.20
2023-01-18T18:30:15.633Z,92.40
2023-01-18T18:32:43.569Z,86.90
2023-01-18T18:35:24.315Z,78.10
2023-01-18T18:37:54.175Z,73.40
2023-01-18T18:40:23.593Z,143.80
2023-01-18T18:43:07.459Z,142.30
2023-01-18T18:45:35.805Z,80.70
2023-01-18T18:48:04.482Z,60.80
2023-01-18T18:50:32.671Z,55.10
2023-01-18T18:53:00.929Z,65.90
2023-01-18T18:55:29.192Z,81.90
2023-01-18T18:57:57.057Z,84.40
2023-01-18T19:00:25.412Z,90.90
2023-01-18T19:03:01.128Z,87.50
2023-01-18T19:05:30.928Z,83.80
2023-01-18T19:07:59.775Z,97.90
2023-01-18T19:10:30.494Z,91.80
2023-01-18T19:12:59.688Z,92.40
2023-01-18T19:15:27.972Z,95.00
2023-01-18T19:17:57.989Z,92.90
2023-01-18T19:20:25.980Z,69.10
2023-01-18T19:22:54.138Z,60.40
2023-01-18T19:25:22.005Z,60.80
2023-01-18T19:27:49.821Z,82.60
2023-01-18T19:30:20.800Z,59.80
2023-01-18T19:32:50.979Z,54.90
2023-01-18T19:35:20.580Z,50.50
2023-01-18T19:37:49.736Z,120.90
2023-01-18T19:40:17.811Z,76.70
2023-01-18T19:42:56.059Z,73.50
2023-01-18T19:45:28.251Z,79.80
2023-01-18T19:47:59.803Z,90.10
2023-01-18T19:50:29.848Z,106.50
2023-01-18T19:52:58.288Z,99.40
2023-01-18T19:55:26.654Z,95.50
2023-01-18T19:57:56.347Z,103.50
2023-01-18T20:00:24.166Z,211.20
2023-01-18T20:02:52.045Z,233.70
2023-01-18T20:05:20.573Z,156.40
2023-01-18T20:07:48.663Z,99.90
2023-01-18T20:10:20.279Z,111.70
2023-01-18T20:12:49.316Z,99.90
2023-01-18T20:15:18.669Z,109.80
2023-01-18T20:17:46.621Z,99.20
2023-01-18T20:20:24.310Z,97.20
2023-01-18T20:23:03.434Z,76.70
2023-01-18T20:25:33.102Z,105.10
2023-01-18T20:28:01.422Z,96.00
2023-01-18T20:30:29.401Z,81.40
2023-01-18T20:32:57.855Z,76.20
2023-01-18T20:35:27.576Z,71.70
2023-01-18T20:37:56.438Z,78.70
2023-01-18T20:40:24.729Z,168.60
2023-01-18T20:42:52.871Z,137.80
2023-01-18T20:45:20.931Z,149.90
2023-01-18T20:47:48.989Z,109.90
2023-01-18T20:50:17.887Z,100.00
2023-01-18T20:52:45.915Z,88.30
2023-01-18T20:55:14.863Z,191.20
2023-01-18T20:57:43.081Z,258.60
2023-01-18T21:00:12.865Z,196.00
2023-01-18T21:02:42.153Z,165.20
2023-01-18T21:05:10.660Z,99.60
2023-01-18T21:07:40.203Z,88.10
2023-01-18T21:10:10.921Z,82.50
2023-01-18T21:12:38.938Z,74.00
2023-01-18T21:15:09.200Z,72.40
2023-01-18T21:17:37.072Z,72.80
2023-01-18T21:20:05.454Z,71.70
2023-01-18T21:22:33.486Z,78.50
2023-01-18T21:25:01.538Z,72.10
2023-01-18T21:27:33.232Z,71.70
2023-01-18T21:30:01.196Z,71.10
2023-01-18T21:32:29.313Z,81.10
2023-01-18T21:34:57.279Z,80.90
2023-01-18T21:37:25.134Z,73.70
2023-01-18T21:39:53.284Z,73.30
2023-01-18T21:42:40.106Z,71.90
2023-01-18T21:45:29.108Z,82.90
2023-01-18T21:47:58.621Z,72.30
2023-01-18T21:50:45.473Z,72.80
2023-01-18T21:53:34.944Z,72.40
2023-01-18T21:56:03.716Z,71.40
2023-01-18T21:58:50.122Z,68.70
2023-01-18T22:01:23.866Z,73.40
2023-01-18T22:04:11.841Z,73.90
2023-01-18T22:06:39.942Z,80.30
2023-01-18T22:09:08.325Z,95.40
2023-01-18T22:11:36.296Z,84.20
2023-01-18T22:14:05.678Z,94.40
2023-01-18T22:16:34.061Z,103.80
2023-01-18T22:19:04.877Z,96.20
2023-01-18T22:21:33.681Z,102.10
2023-01-18T22:24:01.954Z,102.00
2023-01-18T22:26:30.487Z,112.50
2023-01-18T22:28:58.541Z,125.40
2023-01-18T22:31:27.842Z,118.10
2023-01-18T22:33:57.404Z,118.60
2023-01-18T22:36:25.412Z,100.10
2023-01-18T22:38:54.092Z,83.20
2023-01-18T22:41:25.259Z,76.40
2023-01-18T22:43:54.644Z,66.50
2023-01-18T22:46:24.001Z,68.50
2023-01-18T22:48:52.867Z,68.20
2023-01-18T22:51:23.422Z,106.10
2023-01-18T22:53:52.039Z,76.10
2023-01-18T22:56:22.358Z,67.10
2023-01-18T22:58:50.972Z,65.50
2023-01-18T23:01:30.954Z,56.60
2023-01-18T23:04:01.552Z,50.00
2023-01-18T23:06:41.948Z,55.20
2023-01-18T23:09:10.473Z,58.90
2023-01-18T23:11:39.095Z,56.50
2023-01-18T23:14:26.131Z,54.40
2023-01-18T23:17:12.866Z,51.30
2023-01-18T23:19:40.963Z,47.50
2023-01-18T23:22:08.935Z,47.10
2023-01-18T23:24:37.745Z,46.20
2023-01-18T23:27:07.725Z,51.90
2023-01-18T23:29:35.724Z,45.60
2023-01-18T23:32:03.971Z,40.90
2023-01-18T23:34:32.169Z,41.40
2023-01-18T23:37:00.145Z,42.70
2023-01-18T23:39:46.480Z,41.40
2023-01-18T23:42:33.337Z,37.70
2023-01-18T23:45:19.891Z,41.20
2023-01-18T23:48:06.222Z,41.80
2023-01-18T23:50:52.909Z,39.40
2023-01-18T23:53:39.371Z,40.40
2023-01-18T23:56:07.527Z,40.30
2023-01-18T23:58:35.503Z,42.70
